sensor_id;sensor_type;location;lat;lon;timestamp;temperature;humidity
9824;DHT22;4951;50.778;7.196;2023-09-08T00:02:14;17.50;1.00
9824;DHT22;4951;50.778;7.196;2023-09-08T00:04:49;17.40;1.00
9824;DHT22;4951;50.778;7.196;2023-09-08T00:07:18;17.40;1.00
9824;DHT22;4951;50.778;7.196;2023-09-08T00:09:52;17.40;1.00
9824;DHT22;4951;50.778;7.196;2023-09-08T00:12:43;17.40;1.00
9824;DHT22;4951;50.778;7.196;2023-09-08T00:15:14;17.30;1.00
9824;DHT22;4951;50.778;7.196;2023-09-08T00:17:44;17.20;1.00
9824;DHT22;4951;50.778;7.196;2023-09-08T00:23:26;17.20;1.00
9824;DHT22;4951;50.778;7.196;2023-09-08T00:25:58;17.10;1.00
9824;DHT22;4951;50.778;7.196;2023-09-08T00:28:37;17.10;1.00
9824;DHT22;4951;50.778;7.196;2023-09-08T00:31:19;17.00;1.00
9824;DHT22;4951;50.778;7.196;2023-09-08T00:34:09;17.00;1.00
9824;DHT22;4951;50.778;7.196;2023-09-08T00:36:44;17.00;1.00
9824;DHT22;4951;50.778;7.196;2023-09-08T00:39:30;16.90;1.00
9824;DHT22;4951;50.778;7.196;2023-09-08T00:42:03;16.90;1.00
9824;DHT22;4951;50.778;7.196;2023-09-08T00:44:33;16.80;20.80
9824;DHT22;4951;50.778;7.196;2023-09-08T00:47:06;16.80;92.60
9824;DHT22;4951;50.778;7.196;2023-09-08T00:49:36;16.80;99.90
9824;DHT22;4951;50.778;7.196;2023-09-08T00:52:31;16.80;99.90
9824;DHT22;4951;50.778;7.196;2023-09-08T00:55:09;16.80;99.90
9824;DHT22;4951;50.778;7.196;2023-09-08T00:58:01;16.80;99.90
9824;DHT22;4951;50.778;7.196;2023-09-08T01:00:45;16.80;99.90
9824;DHT22;4951;50.778;7.196;2023-09-08T01:03:27;16.80;99.90
9824;DHT22;4951;50.778;7.196;2023-09-08T01:05:56;16.70;99.90
9824;DHT22;4951;50.778;7.196;2023-09-08T01:08:28;16.70;99.90
9824;DHT22;4951;50.778;7.196;2023-09-08T01:11:01;16.70;99.90
9824;DHT22;4951;50.778;7.196;2023-09-08T01:13:51;16.70;99.90
9824;DHT22;4951;50.778;7.196;2023-09-08T01:16:18;16.70;99.90
9824;DHT22;4951;50.778;7.196;2023-09-08T01:18:49;16.70;99.90
9824;DHT22;4951;50.778;7.196;2023-09-08T01:27:33;16.80;99.90
9824;DHT22;4951;50.778;7.196;2023-09-08T01:30:02;16.90;99.90
9824;DHT22;4951;50.778;7.196;2023-09-08T01:32:33;16.90;99.90
9824;DHT22;4951;50.778;7.196;2023-09-08T01:35:08;16.90;99.90
9824;DHT22;4951;50.778;7.196;2023-09-08T01:37:41;16.90;99.90
9824;DHT22;4951;50.778;7.196;2023-09-08T01:40:23;16.90;99.90
9824;DHT22;4951;50.778;7.196;2023-09-08T01:42:53;16.90;99.90
9824;DHT22;4951;50.778;7.196;2023-09-08T01:45:33;17.00;99.90
9824;DHT22;4951;50.778;7.196;2023-09-08T01:48:06;17.00;99.90
9824;DHT22;4951;50.778;7.196;2023-09-08T01:50:37;17.00;99.90
9824;DHT22;4951;50.778;7.196;2023-09-08T01:53:11;16.90;99.80
9824;DHT22;4951;50.778;7.196;2023-09-08T01:55:43;16.80;99.90
9824;DHT22;4951;50.778;7.196;2023-09-08T01:58:13;16.70;99.90
9824;DHT22;4951;50.778;7.196;2023-09-08T02:00:50;16.60;99.90
9824;DHT22;4951;50.778;7.196;2023-09-08T02:03:20;16.50;99.90
9824;DHT22;4951;50.778;7.196;2023-09-08T02:05:49;16.50;99.90
9824;DHT22;4951;50.778;7.196;2023-09-08T02:08:19;16.50;99.90
9824;DHT22;4951;50.778;7.196;2023-09-08T02:10:58;16.50;99.90
9824;DHT22;4951;50.778;7.196;2023-09-08T02:13:30;16.50;99.90
9824;DHT22;4951;50.778;7.196;2023-09-08T02:16:13;16.50;99.90
9824;DHT22;4951;50.778;7.196;2023-09-08T02:18:42;16.40;99.90
9824;DHT22;4951;50.778;7.196;2023-09-08T02:21:12;16.40;99.90
9824;DHT22;4951;50.778;7.196;2023-09-08T02:23:40;16.40;99.90
9824;DHT22;4951;50.778;7.196;2023-09-08T02:26:07;16.40;99.90
9824;DHT22;4951;50.778;7.196;2023-09-08T02:28:38;16.40;99.90
9824;DHT22;4951;50.778;7.196;2023-09-08T02:31:14;16.30;99.90
9824;DHT22;4951;50.778;7.196;2023-09-08T02:34:04;16.30;99.90
9824;DHT22;4951;50.778;7.196;2023-09-08T02:37:05;16.30;99.90
9824;DHT22;4951;50.778;7.196;2023-09-08T02:39:35;16.30;99.50
9824;DHT22;4951;50.778;7.196;2023-09-08T02:42:04;16.20;96.30
9824;DHT22;4951;50.778;7.196;2023-09-08T02:44:43;16.20;99.90
9824;DHT22;4951;50.778;7.196;2023-09-08T02:47:23;16.20;99.90
9824;DHT22;4951;50.778;7.196;2023-09-08T02:49:51;16.20;99.90
9824;DHT22;4951;50.778;7.196;2023-09-08T02:52:28;16.20;99.90
9824;DHT22;4951;50.778;7.196;2023-09-08T02:55:04;16.20;99.90
9824;DHT22;4951;50.778;7.196;2023-09-08T02:57:39;16.20;99.90
9824;DHT22;4951;50.778;7.196;2023-09-08T03:00:14;16.10;99.90
9824;DHT22;4951;50.778;7.196;2023-09-08T03:02:45;16.10;99.90
9824;DHT22;4951;50.778;7.196;2023-09-08T03:05:15;16.10;99.90
9824;DHT22;4951;50.778;7.196;2023-09-08T03:07:43;16.10;99.90
9824;DHT22;4951;50.778;7.196;2023-09-08T03:10:17;16.00;99.90
9824;DHT22;4951;50.778;7.196;2023-09-08T03:12:48;16.00;99.90
9824;DHT22;4951;50.778;7.196;2023-09-08T03:15:19;16.00;99.90
9824;DHT22;4951;50.778;7.196;2023-09-08T03:17:47;16.00;99.90
9824;DHT22;4951;50.778;7.196;2023-09-08T03:20:18;15.90;99.90
9824;DHT22;4951;50.778;7.196;2023-09-08T03:22:46;15.90;99.90
9824;DHT22;4951;50.778;7.196;2023-09-08T03:25:15;15.80;99.90
9824;DHT22;4951;50.778;7.196;2023-09-08T03:27:43;15.80;99.90
9824;DHT22;4951;50.778;7.196;2023-09-08T03:30:16;15.80;99.90
9824;DHT22;4951;50.778;7.196;2023-09-08T03:33:10;15.80;99.90
9824;DHT22;4951;50.778;7.196;2023-09-08T03:35:41;15.70;99.90
9824;DHT22;4951;50.778;7.196;2023-09-08T03:38:33;15.70;99.90
9824;DHT22;4951;50.778;7.196;2023-09-08T03:41:07;15.70;99.90
9824;DHT22;4951;50.778;7.196;2023-09-08T03:43:40;15.60;99.90
9824;DHT22;4951;50.778;7.196;2023-09-08T03:46:08;15.60;99.90
9824;DHT22;4951;50.778;7.196;2023-09-08T03:48:38;15.60;99.90
9824;DHT22;4951;50.778;7.196;2023-09-08T03:51:06;15.50;99.90
9824;DHT22;4951;50.778;7.196;2023-09-08T03:53:35;15.50;99.90
9824;DHT22;4951;50.778;7.196;2023-09-08T03:56:04;15.50;1.00
9824;DHT22;4951;50.778;7.196;2023-09-08T03:58:31;15.50;1.00
9824;DHT22;4951;50.778;7.196;2023-09-08T04:00:59;15.50;1.00
9824;DHT22;4951;50.778;7.196;2023-09-08T04:03:32;15.50;1.00
9824;DHT22;4951;50.778;7.196;2023-09-08T04:06:01;15.50;1.00
9824;DHT22;4951;50.778;7.196;2023-09-08T04:08:37;15.40;1.00
9824;DHT22;4951;50.778;7.196;2023-09-08T04:11:05;15.40;1.00
9824;DHT22;4951;50.778;7.196;2023-09-08T04:13:33;15.40;1.00
9824;DHT22;4951;50.778;7.196;2023-09-08T04:16:06;15.30;1.00
9824;DHT22;4951;50.778;7.196;2023-09-08T04:18:34;15.30;1.00
9824;DHT22;4951;50.778;7.196;2023-09-08T04:21:08;15.30;1.00
9824;DHT22;4951;50.778;7.196;2023-09-08T04:23:48;15.30;1.00
9824;DHT22;4951;50.778;7.196;2023-09-08T04:26:18;15.30;1.00
9824;DHT22;4951;50.778;7.196;2023-09-08T04:28:48;15.40;1.00
9824;DHT22;4951;50.778;7.196;2023-09-08T04:31:46;15.40;1.00
9824;DHT22;4951;50.778;7.196;2023-09-08T04:34:18;15.40;1.00
9824;DHT22;4951;50.778;7.196;2023-09-08T04:36:49;15.50;1.00
9824;DHT22;4951;50.778;7.196;2023-09-08T04:39:27;15.50;1.00
9824;DHT22;4951;50.778;7.196;2023-09-08T04:42:13;15.50;1.00
9824;DHT22;4951;50.778;7.196;2023-09-08T04:44:52;15.60;1.00
9824;DHT22;4951;50.778;7.196;2023-09-08T04:47:28;15.60;1.00
9824;DHT22;4951;50.778;7.196;2023-09-08T04:49:58;15.60;1.00
9824;DHT22;4951;50.778;7.196;2023-09-08T04:52:31;15.60;1.00
9824;DHT22;4951;50.778;7.196;2023-09-08T04:55:17;15.60;99.90
9824;DHT22;4951;50.778;7.196;2023-09-08T04:58:29;15.50;99.90
9824;DHT22;4951;50.778;7.196;2023-09-08T05:01:23;15.50;99.90
9824;DHT22;4951;50.778;7.196;2023-09-08T05:03:59;15.40;99.90
9824;DHT22;4951;50.778;7.196;2023-09-08T05:06:30;15.40;99.90
9824;DHT22;4951;50.778;7.196;2023-09-08T05:09:23;15.40;99.90
9824;DHT22;4951;50.778;7.196;2023-09-08T05:12:18;15.30;1.00
9824;DHT22;4951;50.778;7.196;2023-09-08T05:15:03;15.30;1.00
9824;DHT22;4951;50.778;7.196;2023-09-08T05:18:06;15.30;1.00
9824;DHT22;4951;50.778;7.196;2023-09-08T05:20:42;15.30;1.00
9824;DHT22;4951;50.778;7.196;2023-09-08T05:23:10;15.30;1.00
9824;DHT22;4951;50.778;7.196;2023-09-08T05:25:46;15.30;1.00
9824;DHT22;4951;50.778;7.196;2023-09-08T05:28:15;15.30;1.00
9824;DHT22;4951;50.778;7.196;2023-09-08T05:30:52;15.30;1.00
9824;DHT22;4951;50.778;7.196;2023-09-08T05:33:25;15.40;1.00
9824;DHT22;4951;50.778;7.196;2023-09-08T05:35:53;15.50;1.00
9824;DHT22;4951;50.778;7.196;2023-09-08T05:38:27;15.50;1.00
9824;DHT22;4951;50.778;7.196;2023-09-08T05:41:02;15.60;1.00
9824;DHT22;4951;50.778;7.196;2023-09-08T05:43:53;15.80;1.00
9824;DHT22;4951;50.778;7.196;2023-09-08T05:50:24;16.00;1.00
9824;DHT22;4951;50.778;7.196;2023-09-08T05:53:06;16.10;1.00
9824;DHT22;4951;50.778;7.196;2023-09-08T05:55:35;16.20;99.90
9824;DHT22;4951;50.778;7.196;2023-09-08T05:58:06;16.30;99.90
9824;DHT22;4951;50.778;7.196;2023-09-08T06:00:34;16.40;99.90
9824;DHT22;4951;50.778;7.196;2023-09-08T06:03:03;16.40;99.90
9824;DHT22;4951;50.778;7.196;2023-09-08T06:05:35;16.50;99.90
9824;DHT22;4951;50.778;7.196;2023-09-08T06:08:32;16.60;99.90
9824;DHT22;4951;50.778;7.196;2023-09-08T06:11:00;16.70;99.90
9824;DHT22;4951;50.778;7.196;2023-09-08T06:13:36;16.80;99.90
9824;DHT22;4951;50.778;7.196;2023-09-08T06:16:31;16.90;99.90
9824;DHT22;4951;50.778;7.196;2023-09-08T06:19:25;17.00;99.90
9824;DHT22;4951;50.778;7.196;2023-09-08T06:21:52;17.10;99.90
9824;DHT22;4951;50.778;7.196;2023-09-08T06:27:31;17.20;98.80
9824;DHT22;4951;50.778;7.196;2023-09-08T06:30:19;17.30;25.40
9824;DHT22;4951;50.778;7.196;2023-09-08T06:33:39;17.40;1.00
9824;DHT22;4951;50.778;7.196;2023-09-08T06:36:30;17.60;1.00
9824;DHT22;4951;50.778;7.196;2023-09-08T06:39:17;17.60;1.00
9824;DHT22;4951;50.778;7.196;2023-09-08T06:41:56;17.70;1.00
9824;DHT22;4951;50.778;7.196;2023-09-08T06:44:24;17.90;1.00
9824;DHT22;4951;50.778;7.196;2023-09-08T06:46:53;18.00;1.00
9824;DHT22;4951;50.778;7.196;2023-09-08T06:49:39;18.00;1.00
9824;DHT22;4951;50.778;7.196;2023-09-08T06:52:14;18.10;1.00
9824;DHT22;4951;50.778;7.196;2023-09-08T06:54:44;18.20;1.00
9824;DHT22;4951;50.778;7.196;2023-09-08T06:57:13;18.30;1.00
9824;DHT22;4951;50.778;7.196;2023-09-08T06:59:45;18.40;99.90
9824;DHT22;4951;50.778;7.196;2023-09-08T07:03:00;18.50;99.90
9824;DHT22;4951;50.778;7.196;2023-09-08T07:05:47;18.60;99.90
9824;DHT22;4951;50.778;7.196;2023-09-08T07:08:15;18.70;99.90
9824;DHT22;4951;50.778;7.196;2023-09-08T07:10:44;18.80;99.90
9824;DHT22;4951;50.778;7.196;2023-09-08T07:14:03;18.90;99.90
9824;DHT22;4951;50.778;7.196;2023-09-08T07:16:31;19.00;93.70
9824;DHT22;4951;50.778;7.196;2023-09-08T07:19:00;19.20;1.00
9824;DHT22;4951;50.778;7.196;2023-09-08T07:21:29;19.30;1.00
9824;DHT22;4951;50.778;7.196;2023-09-08T07:25:35;19.40;1.00
9824;DHT22;4951;50.778;7.196;2023-09-08T07:27:34;19.50;1.00
9824;DHT22;4951;50.778;7.196;2023-09-08T07:30:26;19.70;99.90
9824;DHT22;4951;50.778;7.196;2023-09-08T07:32:56;19.80;4.10
9824;DHT22;4951;50.778;7.196;2023-09-08T07:35:53;20.00;1.00
9824;DHT22;4951;50.778;7.196;2023-09-08T07:38:20;20.10;1.00
9824;DHT22;4951;50.778;7.196;2023-09-08T07:40:47;20.20;99.90
9824;DHT22;4951;50.778;7.196;2023-09-08T07:43:16;20.30;1.00
9824;DHT22;4951;50.778;7.196;2023-09-08T07:45:56;20.40;1.00
9824;DHT22;4951;50.778;7.196;2023-09-08T07:48:23;20.50;99.90
9824;DHT22;4951;50.778;7.196;2023-09-08T07:50:50;20.60;1.00
9824;DHT22;4951;50.778;7.196;2023-09-08T07:53:26;20.70;1.00
9824;DHT22;4951;50.778;7.196;2023-09-08T07:56:46;20.80;1.00
9824;DHT22;4951;50.778;7.196;2023-09-08T07:59:31;21.00;99.90
9824;DHT22;4951;50.778;7.196;2023-09-08T08:01:59;21.10;54.20
9824;DHT22;4951;50.778;7.196;2023-09-08T08:04:27;21.20;1.00
9824;DHT22;4951;50.778;7.196;2023-09-08T08:07:16;21.30;1.00
9824;DHT22;4951;50.778;7.196;2023-09-08T08:09:45;21.40;99.90
9824;DHT22;4951;50.778;7.196;2023-09-08T08:12:14;21.50;99.90
9824;DHT22;4951;50.778;7.196;2023-09-08T08:15:02;21.70;1.00
9824;DHT22;4951;50.778;7.196;2023-09-08T08:20:28;22.00;1.00
9824;DHT22;4951;50.778;7.196;2023-09-08T08:22:55;22.20;99.90
9824;DHT22;4951;50.778;7.196;2023-09-08T08:25:25;22.30;99.90
9824;DHT22;4951;50.778;7.196;2023-09-08T08:27:58;22.40;97.60
9824;DHT22;4951;50.778;7.196;2023-09-08T08:30:28;22.60;1.00
9824;DHT22;4951;50.778;7.196;2023-09-08T08:33:29;22.70;1.00
9824;DHT22;4951;50.778;7.196;2023-09-08T08:35:57;22.80;1.00
9824;DHT22;4951;50.778;7.196;2023-09-08T08:38:24;23.00;1.00
9824;DHT22;4951;50.778;7.196;2023-09-08T08:41:05;23.10;99.90
9824;DHT22;4951;50.778;7.196;2023-09-08T08:43:37;23.20;1.00
9824;DHT22;4951;50.778;7.196;2023-09-08T08:46:19;23.30;1.00
9824;DHT22;4951;50.778;7.196;2023-09-08T08:49:05;23.40;1.00
9824;DHT22;4951;50.778;7.196;2023-09-08T08:54:39;23.70;99.90
9824;DHT22;4951;50.778;7.196;2023-09-08T08:57:08;23.80;99.90
9824;DHT22;4951;50.778;7.196;2023-09-08T08:59:42;23.90;30.70
9824;DHT22;4951;50.778;7.196;2023-09-08T09:02:15;24.00;1.00
9824;DHT22;4951;50.778;7.196;2023-09-08T09:04:42;24.00;1.00
9824;DHT22;4951;50.778;7.196;2023-09-08T09:07:32;24.20;1.00
9824;DHT22;4951;50.778;7.196;2023-09-08T09:10:00;24.30;1.00
9824;DHT22;4951;50.778;7.196;2023-09-08T09:13:03;24.40;1.00
9824;DHT22;4951;50.778;7.196;2023-09-08T09:15:31;24.50;1.00
9824;DHT22;4951;50.778;7.196;2023-09-08T09:18:03;24.70;1.00
9824;DHT22;4951;50.778;7.196;2023-09-08T09:20:40;24.70;1.00
9824;DHT22;4951;50.778;7.196;2023-09-08T09:23:10;24.80;1.00
9824;DHT22;4951;50.778;7.196;2023-09-08T09:25:39;24.90;99.90
9824;DHT22;4951;50.778;7.196;2023-09-08T09:28:26;25.00;99.90
9824;DHT22;4951;50.778;7.196;2023-09-08T09:30:59;25.10;99.90
9824;DHT22;4951;50.778;7.196;2023-09-08T09:33:28;25.20;99.90
9824;DHT22;4951;50.778;7.196;2023-09-08T09:39:09;25.40;99.90
9824;DHT22;4951;50.778;7.196;2023-09-08T09:41:36;25.50;99.90
9824;DHT22;4951;50.778;7.196;2023-09-08T09:44:06;25.50;99.90
9824;DHT22;4951;50.778;7.196;2023-09-08T09:46:35;25.60;89.10
9824;DHT22;4951;50.778;7.196;2023-09-08T09:49:10;25.70;36.10
9824;DHT22;4951;50.778;7.196;2023-09-08T09:52:03;25.80;1.00
9824;DHT22;4951;50.778;7.196;2023-09-08T09:54:31;25.80;1.00
9824;DHT22;4951;50.778;7.196;2023-09-08T09:59:49;25.90;1.00
9824;DHT22;4951;50.778;7.196;2023-09-08T10:05:24;26.20;1.00
9824;DHT22;4951;50.778;7.196;2023-09-08T10:07:56;26.20;1.00
9824;DHT22;4951;50.778;7.196;2023-09-08T10:10:43;26.30;1.00
9824;DHT22;4951;50.778;7.196;2023-09-08T10:13:15;26.40;1.00
9824;DHT22;4951;50.778;7.196;2023-09-08T10:15:48;26.40;1.00
9824;DHT22;4951;50.778;7.196;2023-09-08T10:18:32;26.40;1.00
9824;DHT22;4951;50.778;7.196;2023-09-08T10:21:04;26.60;1.00
9824;DHT22;4951;50.778;7.196;2023-09-08T10:23:44;26.70;1.00
9824;DHT22;4951;50.778;7.196;2023-09-08T10:26:16;26.80;1.00
9824;DHT22;4951;50.778;7.196;2023-09-08T10:30:22;26.90;1.00
9824;DHT22;4951;50.778;7.196;2023-09-08T10:32:16;27.00;1.00
9824;DHT22;4951;50.778;7.196;2023-09-08T10:34:49;27.00;1.00
9824;DHT22;4951;50.778;7.196;2023-09-08T10:37:38;27.10;1.00
9824;DHT22;4951;50.778;7.196;2023-09-08T10:40:23;27.20;1.00
9824;DHT22;4951;50.778;7.196;2023-09-08T10:43:06;27.20;1.00
9824;DHT22;4951;50.778;7.196;2023-09-08T10:45:33;27.20;1.00
9824;DHT22;4951;50.778;7.196;2023-09-08T10:48:25;27.20;1.00
9824;DHT22;4951;50.778;7.196;2023-09-08T10:50:52;27.20;1.00
9824;DHT22;4951;50.778;7.196;2023-09-08T10:53:31;27.30;1.00
9824;DHT22;4951;50.778;7.196;2023-09-08T10:56:14;27.40;1.00
9824;DHT22;4951;50.778;7.196;2023-09-08T10:58:42;27.40;1.00
9824;DHT22;4951;50.778;7.196;2023-09-08T11:01:53;27.50;1.00
9824;DHT22;4951;50.778;7.196;2023-09-08T11:04:24;27.50;1.00
9824;DHT22;4951;50.778;7.196;2023-09-08T11:06:51;27.70;1.00
9824;DHT22;4951;50.778;7.196;2023-09-08T11:12:28;27.80;1.00
9824;DHT22;4951;50.778;7.196;2023-09-08T11:15:08;27.90;1.00
9824;DHT22;4951;50.778;7.196;2023-09-08T11:17:37;27.90;1.00
9824;DHT22;4951;50.778;7.196;2023-09-08T11:23:45;28.00;1.00
9824;DHT22;4951;50.778;7.196;2023-09-08T11:26:12;28.10;1.00
9824;DHT22;4951;50.778;7.196;2023-09-08T11:28:41;28.10;99.90
9824;DHT22;4951;50.778;7.196;2023-09-08T11:31:26;28.20;99.90
9824;DHT22;4951;50.778;7.196;2023-09-08T11:33:55;28.10;99.90
9824;DHT22;4951;50.778;7.196;2023-09-08T11:39:47;28.20;99.90
9824;DHT22;4951;50.778;7.196;2023-09-08T11:42:38;28.20;99.90
9824;DHT22;4951;50.778;7.196;2023-09-08T11:45:11;28.40;99.90
9824;DHT22;4951;50.778;7.196;2023-09-08T11:48:01;28.50;99.90
9824;DHT22;4951;50.778;7.196;2023-09-08T11:50:30;28.60;99.90
9824;DHT22;4951;50.778;7.196;2023-09-08T12:08:19;29.20;99.90
9824;DHT22;4951;50.778;7.196;2023-09-08T12:10:48;29.40;99.90
9824;DHT22;4951;50.778;7.196;2023-09-08T12:13:20;29.40;99.90
9824;DHT22;4951;50.778;7.196;2023-09-08T12:15:47;29.30;99.90
9824;DHT22;4951;50.778;7.196;2023-09-08T12:18:15;29.40;99.90
9824;DHT22;4951;50.778;7.196;2023-09-08T12:20:43;29.50;99.90
9824;DHT22;4951;50.778;7.196;2023-09-08T12:23:21;29.50;99.90
9824;DHT22;4951;50.778;7.196;2023-09-08T12:25:50;29.60;99.90
9824;DHT22;4951;50.778;7.196;2023-09-08T12:28:20;29.60;99.90
9824;DHT22;4951;50.778;7.196;2023-09-08T12:30:49;29.60;99.90
9824;DHT22;4951;50.778;7.196;2023-09-08T12:33:18;29.70;99.90
9824;DHT22;4951;50.778;7.196;2023-09-08T12:35:47;29.80;99.90
9824;DHT22;4951;50.778;7.196;2023-09-08T12:38:20;29.90;99.90
9824;DHT22;4951;50.778;7.196;2023-09-08T12:40:48;29.90;99.90
9824;DHT22;4951;50.778;7.196;2023-09-08T12:43:16;30.00;99.90
9824;DHT22;4951;50.778;7.196;2023-09-08T12:45:43;30.10;99.90
9824;DHT22;4951;50.778;7.196;2023-09-08T12:48:12;30.30;99.90
9824;DHT22;4951;50.778;7.196;2023-09-08T12:50:40;30.40;99.90
9824;DHT22;4951;50.778;7.196;2023-09-08T12:53:08;30.50;99.90
9824;DHT22;4951;50.778;7.196;2023-09-08T12:55:38;30.70;99.90
9824;DHT22;4951;50.778;7.196;2023-09-08T12:58:06;31.00;99.90
9824;DHT22;4951;50.778;7.196;2023-09-08T13:00:33;31.20;99.90
9824;DHT22;4951;50.778;7.196;2023-09-08T13:03:01;31.40;99.90
9824;DHT22;4951;50.778;7.196;2023-09-08T13:05:28;31.60;99.90
9824;DHT22;4951;50.778;7.196;2023-09-08T13:07:58;31.90;99.90
9824;DHT22;4951;50.778;7.196;2023-09-08T13:10:25;32.10;99.90
9824;DHT22;4951;50.778;7.196;2023-09-08T13:12:57;32.40;99.90
9824;DHT22;4951;50.778;7.196;2023-09-08T13:15:24;32.80;99.90
9824;DHT22;4951;50.778;7.196;2023-09-08T13:17:51;33.10;99.90
9824;DHT22;4951;50.778;7.196;2023-09-08T13:20:18;33.50;99.90
9824;DHT22;4951;50.778;7.196;2023-09-08T13:22:48;34.00;99.90
9824;DHT22;4951;50.778;7.196;2023-09-08T13:25:15;34.40;94.30
9824;DHT22;4951;50.778;7.196;2023-09-08T13:27:43;34.70;85.40
9824;DHT22;4951;50.778;7.196;2023-09-08T13:30:14;34.90;64.50
9824;DHT22;4951;50.778;7.196;2023-09-08T13:32:43;35.30;43.20
9824;DHT22;4951;50.778;7.196;2023-09-08T13:35:10;35.50;22.90
9824;DHT22;4951;50.778;7.196;2023-09-08T13:37:37;35.70;11.10
9824;DHT22;4951;50.778;7.196;2023-09-08T13:40:07;36.00;1.60
9824;DHT22;4951;50.778;7.196;2023-09-08T13:42:35;36.10;1.00
9824;DHT22;4951;50.778;7.196;2023-09-08T13:45:04;36.10;1.00
9824;DHT22;4951;50.778;7.196;2023-09-08T13:47:33;36.30;1.00
9824;DHT22;4951;50.778;7.196;2023-09-08T13:50:02;36.50;1.00
9824;DHT22;4951;50.778;7.196;2023-09-08T13:52:30;36.80;1.00
9824;DHT22;4951;50.778;7.196;2023-09-08T13:54:58;36.90;1.00
9824;DHT22;4951;50.778;7.196;2023-09-08T13:57:27;37.00;1.00
9824;DHT22;4951;50.778;7.196;2023-09-08T13:59:55;37.00;1.00
9824;DHT22;4951;50.778;7.196;2023-09-08T14:02:24;37.20;1.00
9824;DHT22;4951;50.778;7.196;2023-09-08T14:04:54;37.40;1.00
9824;DHT22;4951;50.778;7.196;2023-09-08T14:07:22;37.60;1.00
9824;DHT22;4951;50.778;7.196;2023-09-08T14:09:50;37.80;1.00
9824;DHT22;4951;50.778;7.196;2023-09-08T14:12:18;37.70;1.00
9824;DHT22;4951;50.778;7.196;2023-09-08T14:14:52;37.70;1.00
9824;DHT22;4951;50.778;7.196;2023-09-08T14:17:20;37.80;1.00
9824;DHT22;4951;50.778;7.196;2023-09-08T14:19:48;38.00;1.00
9824;DHT22;4951;50.778;7.196;2023-09-08T14:22:18;37.90;1.00
9824;DHT22;4951;50.778;7.196;2023-09-08T14:24:45;37.90;1.00
9824;DHT22;4951;50.778;7.196;2023-09-08T14:27:16;38.10;1.00
9824;DHT22;4951;50.778;7.196;2023-09-08T14:29:43;38.20;1.00
9824;DHT22;4951;50.778;7.196;2023-09-08T14:32:10;38.50;1.00
9824;DHT22;4951;50.778;7.196;2023-09-08T14:34:38;38.60;1.00
9824;DHT22;4951;50.778;7.196;2023-09-08T14:37:05;38.80;1.00
9824;DHT22;4951;50.778;7.196;2023-09-08T14:39:34;39.00;1.00
9824;DHT22;4951;50.778;7.196;2023-09-08T14:42:04;39.10;1.00
9824;DHT22;4951;50.778;7.196;2023-09-08T14:44:32;38.90;1.00
9824;DHT22;4951;50.778;7.196;2023-09-08T14:46:59;38.90;1.00
9824;DHT22;4951;50.778;7.196;2023-09-08T14:49:27;39.00;1.00
9824;DHT22;4951;50.778;7.196;2023-09-08T14:51:54;39.00;1.00
9824;DHT22;4951;50.778;7.196;2023-09-08T14:54:24;38.90;1.00
9824;DHT22;4951;50.778;7.196;2023-09-08T14:56:55;38.90;1.00
9824;DHT22;4951;50.778;7.196;2023-09-08T14:59:23;38.90;1.00
9824;DHT22;4951;50.778;7.196;2023-09-08T15:01:52;39.00;1.00
9824;DHT22;4951;50.778;7.196;2023-09-08T15:04:22;39.10;1.00
9824;DHT22;4951;50.778;7.196;2023-09-08T15:06:51;38.90;1.00
9824;DHT22;4951;50.778;7.196;2023-09-08T15:09:18;38.80;1.00
9824;DHT22;4951;50.778;7.196;2023-09-08T15:11:45;38.80;1.00
9824;DHT22;4951;50.778;7.196;2023-09-08T15:14:14;38.60;1.00
9824;DHT22;4951;50.778;7.196;2023-09-08T15:16:41;38.40;1.00
9824;DHT22;4951;50.778;7.196;2023-09-08T15:19:09;38.40;1.00
9824;DHT22;4951;50.778;7.196;2023-09-08T15:21:37;38.40;1.00
9824;DHT22;4951;50.778;7.196;2023-09-08T15:24:06;38.50;1.00
9824;DHT22;4951;50.778;7.196;2023-09-08T15:26:33;38.60;1.00
9824;DHT22;4951;50.778;7.196;2023-09-08T15:29:01;38.80;1.00
9824;DHT22;4951;50.778;7.196;2023-09-08T15:31:34;38.70;1.00
9824;DHT22;4951;50.778;7.196;2023-09-08T15:34:01;38.40;1.00
9824;DHT22;4951;50.778;7.196;2023-09-08T15:36:29;38.20;1.00
9824;DHT22;4951;50.778;7.196;2023-09-08T15:38:59;38.00;1.00
9824;DHT22;4951;50.778;7.196;2023-09-08T15:41:41;37.90;1.00
9824;DHT22;4951;50.778;7.196;2023-09-08T15:44:08;37.50;1.00
9824;DHT22;4951;50.778;7.196;2023-09-08T15:47:07;36.80;1.00
9824;DHT22;4951;50.778;7.196;2023-09-08T15:49:36;35.80;1.00
9824;DHT22;4951;50.778;7.196;2023-09-08T15:52:21;34.80;1.00
9824;DHT22;4951;50.778;7.196;2023-09-08T15:54:52;34.00;1.00
9824;DHT22;4951;50.778;7.196;2023-09-08T15:57:20;33.20;1.00
9824;DHT22;4951;50.778;7.196;2023-09-08T15:59:48;32.70;1.00
9824;DHT22;4951;50.778;7.196;2023-09-08T16:02:17;32.20;1.00
9824;DHT22;4951;50.778;7.196;2023-09-08T16:04:46;31.80;1.00
9824;DHT22;4951;50.778;7.196;2023-09-08T16:07:13;31.50;1.00
9824;DHT22;4951;50.778;7.196;2023-09-08T16:13:22;30.90;1.00
9824;DHT22;4951;50.778;7.196;2023-09-08T16:15:49;30.60;1.00
9824;DHT22;4951;50.778;7.196;2023-09-08T16:18:19;30.50;1.00
9824;DHT22;4951;50.778;7.196;2023-09-08T16:20:48;30.30;1.00
9824;DHT22;4951;50.778;7.196;2023-09-08T16:23:20;30.10;1.00
9824;DHT22;4951;50.778;7.196;2023-09-08T16:25:53;30.00;1.00
9824;DHT22;4951;50.778;7.196;2023-09-08T16:28:57;29.90;1.00
9824;DHT22;4951;50.778;7.196;2023-09-08T16:31:40;29.70;1.00
9824;DHT22;4951;50.778;7.196;2023-09-08T16:34:09;29.60;1.00
9824;DHT22;4951;50.778;7.196;2023-09-08T16:36:53;29.50;1.00
9824;DHT22;4951;50.778;7.196;2023-09-08T16:39:22;29.40;1.00
9824;DHT22;4951;50.778;7.196;2023-09-08T16:41:52;29.30;1.00
9824;DHT22;4951;50.778;7.196;2023-09-08T16:44:19;29.30;1.00
9824;DHT22;4951;50.778;7.196;2023-09-08T16:46:52;29.20;1.00
9824;DHT22;4951;50.778;7.196;2023-09-08T16:49:37;29.10;1.00
9824;DHT22;4951;50.778;7.196;2023-09-08T16:52:30;29.00;1.00
9824;DHT22;4951;50.778;7.196;2023-09-08T16:55:11;28.90;2.30
9824;DHT22;4951;50.778;7.196;2023-09-08T16:58:06;28.80;7.10
9824;DHT22;4951;50.778;7.196;2023-09-08T17:00:51;28.70;13.50
9824;DHT22;4951;50.778;7.196;2023-09-08T17:03:27;28.60;17.40
9824;DHT22;4951;50.778;7.196;2023-09-08T17:05:56;28.50;24.80
9824;DHT22;4951;50.778;7.196;2023-09-08T17:08:39;28.40;30.40
9824;DHT22;4951;50.778;7.196;2023-09-08T17:11:07;28.30;39.60
9824;DHT22;4951;50.778;7.196;2023-09-08T17:13:46;28.30;44.80
9824;DHT22;4951;50.778;7.196;2023-09-08T17:16:27;28.20;52.90
9824;DHT22;4951;50.778;7.196;2023-09-08T17:19:12;28.10;59.50
9824;DHT22;4951;50.778;7.196;2023-09-08T17:21:41;28.00;66.70
9824;DHT22;4951;50.778;7.196;2023-09-08T17:24:09;27.90;80.70
9824;DHT22;4951;50.778;7.196;2023-09-08T17:26:40;27.80;93.00
9824;DHT22;4951;50.778;7.196;2023-09-08T17:29:15;27.70;97.10
9824;DHT22;4951;50.778;7.196;2023-09-08T17:32:02;27.60;99.90
9824;DHT22;4951;50.778;7.196;2023-09-08T17:34:57;27.50;99.90
9824;DHT22;4951;50.778;7.196;2023-09-08T17:37:35;27.50;99.90
9824;DHT22;4951;50.778;7.196;2023-09-08T17:40:05;27.40;99.90
9824;DHT22;4951;50.778;7.196;2023-09-08T17:42:38;27.30;99.90
9824;DHT22;4951;50.778;7.196;2023-09-08T17:45:14;27.20;99.90
9824;DHT22;4951;50.778;7.196;2023-09-08T17:47:44;27.00;99.90
9824;DHT22;4951;50.778;7.196;2023-09-08T17:50:13;26.90;99.90
9824;DHT22;4951;50.778;7.196;2023-09-08T17:53:01;26.80;99.90
9824;DHT22;4951;50.778;7.196;2023-09-08T17:55:36;26.70;99.90
9824;DHT22;4951;50.778;7.196;2023-09-08T17:58:28;26.50;99.90
9824;DHT22;4951;50.778;7.196;2023-09-08T18:01:13;26.40;99.90